Time;durP1;ratioP1;P1;durP2;ratioP2;P2;SDS_P1;SDS_P2;PMS_P1;PMS_P2;Temp;Humidity;BMP_temperature;BMP_pressure;BME280_temperature;BME280_humidity;BME280_pressure;Samples;Min_cycle;Max_cycle;Signal;HPM_P1;HPM_P2
2022/04/08 00:00:17;;;;;;;5.73;1.60;;;10.90;99.90;;;;;;1035549;28;20037;-61
2022/04/08 00:00:47;;;;;;;4.23;1.27;;;10.90;99.90;;;;;;1038901;28;20013;-60
2022/04/08 00:01:18;;;;;;;5.53;1.90;;;10.90;99.90;;;;;;1039380;28;20021;-61
2022/04/08 00:01:48;;;;;;;4.23;1.60;;;10.90;99.90;;;;;;1038974;28;20017;-60
2022/04/08 00:02:19;;;;;;;3.30;1.50;;;10.90;99.90;;;;;;1039756;28;20057;-61
2022/04/08 00:02:50;;;;;;;5.47;1.50;;;10.90;99.90;;;;;;1039170;28;20018;-61
2022/04/08 00:03:20;;;;;;;3.40;1.83;;;10.90;99.90;;;;;;1039207;28;20104;-61
2022/04/08 00:03:52;;;;;;;3.90;1.50;;;10.90;99.90;;;;;;1034708;28;20078;-61
2022/04/08 00:04:23;;;;;;;4.15;1.67;;;10.80;99.90;;;;;;1035019;28;20014;-61
2022/04/08 00:04:55;;;;;;;3.50;1.40;;;10.90;99.90;;;;;;1035008;28;20705;-61
2022/04/08 00:05:26;;;;;;;2.63;1.13;;;10.90;99.90;;;;;;1039461;28;20057;-61
2022/04/08 00:05:58;;;;;;;5.13;1.50;;;10.90;99.90;;;;;;1040474;28;20581;-61
2022/04/08 00:06:29;;;;;;;2.45;1.17;;;10.90;99.90;;;;;;1039691;28;20400;-60
2022/04/08 00:07:00;;;;;;;2.67;1.37;;;10.90;99.90;;;;;;1039017;28;20467;-61
2022/04/08 00:07:31;;;;;;;3.75;1.45;;;10.80;99.90;;;;;;1039376;28;20085;-61
2022/04/08 00:08:01;;;;;;;4.70;1.60;;;10.80;99.90;;;;;;1039123;28;20016;-61
2022/04/08 00:08:32;;;;;;;3.57;1.37;;;10.80;99.90;;;;;;1039327;28;20345;-62
2022/04/08 00:09:02;;;;;;;5.50;1.70;;;10.80;99.90;;;;;;1039311;28;20195;-60
2022/04/08 00:09:33;;;;;;;4.10;1.70;;;10.80;99.90;;;;;;1039491;28;20372;-60
2022/04/08 00:10:04;;;;;;;3.47;1.53;;;10.80;99.90;;;;;;1039318;28;20157;-62
2022/04/08 00:10:34;;;;;;;3.87;1.20;;;10.80;99.90;;;;;;1039242;28;20049;-61
2022/04/08 00:11:05;;;;;;;2.93;1.20;;;10.80;99.90;;;;;;1039428;28;20047;-61
2022/04/08 00:11:36;;;;;;;2.95;1.25;;;10.80;99.90;;;;;;1039668;28;20035;-61
2022/04/08 00:12:07;;;;;;;2.57;1.57;;;10.80;99.90;;;;;;1039109;28;20066;-61
2022/04/08 00:12:38;;;;;;;3.20;1.13;;;10.80;99.90;;;;;;1039679;28;20018;-61
2022/04/08 00:13:09;;;;;;;4.83;1.43;;;10.80;99.90;;;;;;1039274;28;20100;-61
2022/04/08 00:13:39;;;;;;;3.77;1.10;;;10.80;99.90;;;;;;1039764;28;20105;-61
2022/04/08 00:14:10;;;;;;;4.03;1.33;;;10.80;99.90;;;;;;1039338;28;20017;-62
2022/04/08 00:14:40;;;;;;;3.40;1.43;;;10.80;99.90;;;;;;1039683;28;20457;-61
2022/04/08 00:15:11;;;;;;;2.70;1.20;;;10.80;99.90;;;;;;1039478;28;20009;-61
2022/04/08 00:15:42;;;;;;;4.80;1.70;;;10.80;99.90;;;;;;1039704;28;20009;-61
2022/04/08 00:16:12;;;;;;;3.97;1.43;;;10.80;99.90;;;;;;1039409;28;20064;-61
2022/04/08 00:16:43;;;;;;;4.00;1.63;;;10.80;99.90;;;;;;1039015;28;20029;-61
2022/04/08 00:17:13;;;;;;;3.60;1.17;;;10.80;99.90;;;;;;1039100;28;20372;-62
2022/04/08 00:17:44;;;;;;;3.10;1.53;;;10.80;99.90;;;;;;1039141;28;20342;-61
2022/04/08 00:18:14;;;;;;;4.10;1.80;;;10.80;99.90;;;;;;1039168;28;20453;-61
2022/04/08 00:18:45;;;;;;;5.03;2.30;;;10.80;99.90;;;;;;1039398;28;20561;-61
2022/04/08 00:19:16;;;;;;;3.50;1.50;;;10.80;99.90;;;;;;1039411;28;20009;-62
2022/04/08 00:19:46;;;;;;;1.90;0.90;;;10.80;99.90;;;;;;1039397;28;20006;-61
2022/04/08 00:20:17;;;;;;;2.23;1.20;;;10.80;99.90;;;;;;1039673;28;20466;-61
2022/04/08 00:20:48;;;;;;;3.90;1.17;;;10.80;99.90;;;;;;1039352;28;20096;-61
2022/04/08 00:21:18;;;;;;;6.03;1.50;;;10.70;99.90;;;;;;1039644;28;20012;-62
2022/04/08 00:21:49;;;;;;;4.10;1.13;;;10.80;99.90;;;;;;1039290;28;20009;-61
2022/04/08 00:22:21;;;;;;;3.17;1.10;;;10.80;99.90;;;;;;1039663;28;20108;-61
2022/04/08 00:22:52;;;;;;;4.18;1.45;;;10.80;99.90;;;;;;1039282;28;20407;-61
2022/04/08 00:23:22;;;;;;;7.28;1.63;;;10.80;99.90;;;;;;1039781;28;20508;-61
2022/04/08 00:23:53;;;;;;;4.70;1.23;;;10.80;99.90;;;;;;1039259;28;20025;-61
2022/04/08 00:24:23;;;;;;;3.33;1.53;;;10.80;99.90;;;;;;1039714;28;20073;-61
2022/04/08 00:24:54;;;;;;;6.77;1.70;;;10.80;99.90;;;;;;1039193;28;20029;-61
2022/04/08 00:25:25;;;;;;;2.87;1.00;;;10.80;99.90;;;;;;1039340;28;20108;-61
2022/04/08 00:25:55;;;;;;;3.63;1.47;;;10.80;99.90;;;;;;1039176;28;20381;-61
2022/04/08 00:26:26;;;;;;;4.53;1.57;;;10.80;99.90;;;;;;1039286;28;20108;-61
2022/04/08 00:26:56;;;;;;;4.87;1.30;;;10.80;99.90;;;;;;1038966;28;20075;-61
2022/04/08 00:27:27;;;;;;;4.43;1.23;;;10.80;99.90;;;;;;1039498;28;20025;-61
2022/04/08 00:27:58;;;;;;;4.27;1.57;;;10.80;99.90;;;;;;1038900;28;20545;-61
2022/04/08 00:28:28;;;;;;;2.53;1.13;;;10.80;99.90;;;;;;1039289;28;20022;-61
2022/04/08 00:28:59;;;;;;;6.13;1.23;;;10.80;99.90;;;;;;1039081;28;20049;-60
2022/04/08 00:29:30;;;;;;;4.87;1.70;;;10.70;99.90;;;;;;1039112;28;20507;-61
2022/04/08 00:30:01;;;;;;;4.68;1.50;;;10.80;99.90;;;;;;1039003;28;20097;-61
2022/04/08 00:30:32;;;;;;;1.83;1.00;;;10.70;99.90;;;;;;1039249;28;20404;-61
2022/04/08 00:31:04;;;;;;;3.17;1.53;;;10.80;99.90;;;;;;1039041;28;20135;-60
2022/04/08 00:31:34;;;;;;;4.07;1.40;;;10.70;99.90;;;;;;1039634;28;20009;-61
2022/04/08 00:32:05;;;;;;;3.07;1.40;;;10.70;99.90;;;;;;1039349;28;20264;-61
2022/04/08 00:32:36;;;;;;;5.43;1.40;;;10.80;99.90;;;;;;1039555;28;20077;-61
2022/04/08 00:33:06;;;;;;;3.40;1.27;;;10.70;99.90;;;;;;1039249;28;20095;-61
2022/04/08 00:33:37;;;;;;;4.00;1.63;;;10.80;99.90;;;;;;1039807;28;20013;-61
2022/04/08 00:34:10;;;;;;;3.60;1.23;;;10.70;99.90;;;;;;1039309;28;20072;-61
2022/04/08 00:34:41;;;;;;;2.55;1.00;;;10.70;99.90;;;;;;1039509;28;20028;-61
2022/04/08 00:35:11;;;;;;;3.67;1.40;;;10.70;99.90;;;;;;1039314;28;20028;-61
2022/04/08 00:35:42;;;;;;;2.43;1.00;;;10.70;99.90;;;;;;1039510;28;20041;-61
2022/04/08 00:36:12;;;;;;;2.97;1.00;;;10.70;99.90;;;;;;1039481;28;20014;-61
2022/04/08 00:36:43;;;;;;;3.80;1.40;;;10.70;99.90;;;;;;1039551;28;20629;-61
2022/04/08 00:37:13;;;;;;;3.17;1.23;;;10.70;99.90;;;;;;1038927;28;20083;-61
2022/04/08 00:37:44;;;;;;;5.20;1.60;;;10.70;99.90;;;;;;1039071;28;20020;-61
2022/04/08 00:38:14;;;;;;;5.43;1.57;;;10.70;99.90;;;;;;1039156;28;20021;-61
2022/04/08 00:38:48;;;;;;;4.17;1.23;;;10.70;99.90;;;;;;1039111;28;20097;-61
2022/04/08 00:39:19;;;;;;;3.50;1.60;;;10.70;99.90;;;;;;1039139;28;20097;-61
2022/04/08 00:39:50;;;;;;;2.67;1.07;;;10.70;99.90;;;;;;1039240;28;20017;-60
2022/04/08 00:40:20;;;;;;;2.57;1.20;;;10.70;99.90;;;;;;1039291;28;20025;-61
2022/04/08 00:40:51;;;;;;;4.07;0.90;;;10.70;99.90;;;;;;1039297;28;20014;-61
2022/04/08 00:41:21;;;;;;;4.27;1.53;;;10.70;99.90;;;;;;1039394;28;20383;-61
2022/04/08 00:41:52;;;;;;;5.70;2.00;;;10.70;99.90;;;;;;1039365;28;20072;-61
2022/04/08 00:42:22;;;;;;;3.67;1.63;;;10.70;99.90;;;;;;1039536;28;20041;-61
2022/04/08 00:42:53;;;;;;;3.03;1.23;;;10.70;99.90;;;;;;1039327;28;20412;-61
2022/04/08 00:43:36;;;;;;;4.73;1.60;;;10.70;99.90;;;;;;1039514;28;20092;-61
2022/04/08 00:44:07;;;;;;;2.22;1.00;;;10.70;99.90;;;;;;1039639;28;20785;-61
2022/04/08 00:44:37;;;;;;;2.47;1.27;;;10.70;99.90;;;;;;1039148;28;20013;-61
2022/04/08 00:45:09;;;;;;;4.20;1.20;;;10.70;99.90;;;;;;1039643;28;20021;-61
2022/04/08 00:45:40;;;;;;;6.45;1.65;;;10.70;99.90;;;;;;1039312;28;20036;-61
2022/04/08 00:46:11;;;;;;;5.18;1.30;;;10.70;99.90;;;;;;1039383;28;20388;-61
2022/04/08 00:46:43;;;;;;;6.13;1.73;;;10.70;99.90;;;;;;1039498;28;20400;-61
2022/04/08 00:47:13;;;;;;;2.65;1.30;;;10.70;99.90;;;;;;1039478;28;20018;-61
2022/04/08 00:47:44;;;;;;;3.77;1.30;;;10.70;99.90;;;;;;1039325;28;20037;-61
2022/04/08 00:48:15;;;;;;;4.73;1.40;;;10.70;99.90;;;;;;1039617;28;20033;-61
2022/04/08 00:48:45;;;;;;;4.00;1.40;;;10.70;99.90;;;;;;1039409;28;20137;-61
2022/04/08 00:49:16;;;;;;;3.20;1.33;;;10.70;99.90;;;;;;1039135;28;20017;-60
2022/04/08 00:49:47;;;;;;;6.17;1.30;;;10.70;99.90;;;;;;1039115;28;20075;-60
2022/04/08 00:50:19;;;;;;;5.15;1.40;;;10.70;99.90;;;;;;1039088;28;20527;-63
2022/04/08 00:50:50;;;;;;;3.40;1.25;;;10.70;99.90;;;;;;1039269;28;20131;-62
2022/04/08 00:51:22;;;;;;;2.90;1.20;;;10.70;99.90;;;;;;1043440;28;20013;-61
2022/04/08 00:51:53;;;;;;;3.72;1.10;;;10.70;99.90;;;;;;1039535;28;20021;-63
2022/04/08 00:52:24;;;;;;;3.05;1.20;;;10.70;99.90;;;;;;1043165;28;20017;-60
2022/04/08 00:52:54;;;;;;;5.70;1.50;;;10.70;99.90;;;;;;1043123;28;20025;-60
2022/04/08 00:53:25;;;;;;;6.27;1.97;;;10.70;99.90;;;;;;1039697;28;20096;-60
2022/04/08 00:53:56;;;;;;;2.90;1.20;;;10.70;99.90;;;;;;1039450;28;20392;-62
2022/04/08 00:54:30;;;;;;;4.20;1.52;;;10.70;99.90;;;;;;1039315;28;20393;-60
2022/04/08 00:55:04;;;;;;;3.17;1.45;;;10.70;99.90;;;;;;1039495;28;20029;-61
2022/04/08 00:55:36;;;;;;;4.50;1.20;;;10.70;99.90;;;;;;1039335;28;20096;-61
2022/04/08 00:56:07;;;;;;;4.13;1.52;;;10.70;99.90;;;;;;1039293;28;20495;-60
2022/04/08 00:56:38;;;;;;;4.07;1.80;;;10.70;99.90;;;;;;1039371;28;20556;-62
2022/04/08 00:57:09;;;;;;;5.20;1.75;;;10.70;99.90;;;;;;1039093;28;20030;-62
2022/04/08 00:57:41;;;;;;;2.67;1.27;;;10.70;99.90;;;;;;1038945;28;20037;-62
2022/04/08 00:58:13;;;;;;;4.72;1.30;;;10.70;99.90;;;;;;1039016;28;20025;-62
2022/04/08 00:58:44;;;;;;;6.55;1.48;;;10.70;99.90;;;;;;1039058;28;20564;-62
2022/04/08 00:59:15;;;;;;;4.33;1.73;;;10.70;99.90;;;;;;1039108;28;20569;-62
2022/04/08 00:59:46;;;;;;;7.32;1.80;;;10.70;99.90;;;;;;1039034;28;20036;-61
2022/04/08 01:00:19;;;;;;;2.88;1.30;;;10.70;99.90;;;;;;1039708;28;20028;-60
2022/04/08 01:00:50;;;;;;;5.22;1.75;;;10.70;99.90;;;;;;1039335;28;20107;-61
2022/04/08 01:01:20;;;;;;;5.17;1.50;;;10.70;99.90;;;;;;1035001;28;20127;-60
2022/04/08 01:01:51;;;;;;;5.37;1.47;;;10.70;99.90;;;;;;1034974;28;20026;-61
2022/04/08 01:02:21;;;;;;;3.40;1.73;;;10.70;99.90;;;;;;1036863;28;20540;-60
2022/04/08 01:02:52;;;;;;;3.20;1.23;;;10.70;99.90;;;;;;1034818;28;20018;-60
2022/04/08 01:03:22;;;;;;;3.30;1.33;;;10.70;99.90;;;;;;1039548;28;20105;-61
2022/04/08 01:03:53;;;;;;;4.07;1.43;;;10.70;99.90;;;;;;1039249;28;20072;-61
2022/04/08 01:04:26;;;;;;;3.37;1.20;;;10.60;99.90;;;;;;1039435;28;20020;-61
2022/04/08 01:04:57;;;;;;;5.18;1.50;;;10.60;99.90;;;;;;1039333;28;20025;-60
2022/04/08 01:05:28;;;;;;;3.80;1.27;;;10.70;99.90;;;;;;1039312;28;20506;-62
2022/04/08 01:05:58;;;;;;;4.70;2.03;;;10.60;99.90;;;;;;1039193;28;20028;-61
2022/04/08 01:06:29;;;;;;;6.80;1.73;;;10.60;99.90;;;;;;1039221;28;20287;-60
2022/04/08 01:07:02;;;;;;;7.73;2.27;;;10.60;99.90;;;;;;1039008;28;20485;-61
2022/04/08 01:07:32;;;;;;;3.35;1.15;;;10.70;99.90;;;;;;1039381;28;20032;-60
2022/04/08 01:08:07;;;;;;;6.27;1.87;;;10.60;99.90;;;;;;1039198;28;20014;-61
2022/04/08 01:08:38;;;;;;;3.00;1.52;;;10.60;99.90;;;;;;1039375;28;20039;-61
2022/04/08 01:09:10;;;;;;;4.15;1.45;;;10.60;99.90;;;;;;1039195;28;20071;-62
2022/04/08 01:09:41;;;;;;;4.75;1.88;;;10.60;99.90;;;;;;1039410;28;20093;-61
2022/04/08 01:10:12;;;;;;;5.60;1.45;;;10.60;99.90;;;;;;1039266;28;20013;-61
2022/04/08 01:10:44;;;;;;;4.03;1.30;;;10.60;99.90;;;;;;1039448;28;20033;-60
2022/04/08 01:11:15;;;;;;;4.93;1.30;;;10.60;99.90;;;;;;1039291;28;20576;-61
2022/04/08 01:11:46;;;;;;;4.13;1.70;;;10.60;99.90;;;;;;1039343;28;20096;-62
2022/04/08 01:12:16;;;;;;;2.87;1.27;;;10.60;99.90;;;;;;1039246;28;20028;-61
2022/04/08 01:12:49;;;;;;;7.33;1.80;;;10.60;99.90;;;;;;1039550;28;20021;-61
2022/04/08 01:13:19;;;;;;;4.53;1.65;;;10.60;99.90;;;;;;1039414;28;20067;-61
2022/04/08 01:13:51;;;;;;;3.80;1.40;;;10.60;99.90;;;;;;1039573;28;20013;-60
2022/04/08 01:14:22;;;;;;;3.72;1.70;;;10.60;99.90;;;;;;1039257;28;20018;-62
2022/04/08 01:14:57;;;;;;;2.90;1.20;;;10.50;99.90;;;;;;1039420;28;20020;-61
2022/04/08 01:15:28;;;;;;;3.47;1.58;;;10.50;99.90;;;;;;1038867;28;20033;-61
2022/04/08 01:15:58;;;;;;;3.63;1.50;;;10.60;99.90;;;;;;1039254;28;20025;-62
2022/04/08 01:16:29;;;;;;;6.10;1.63;;;10.50;99.90;;;;;;1038922;28;20020;-61
2022/04/08 01:16:59;;;;;;;5.47;2.00;;;10.60;99.90;;;;;;1039009;28;20092;-62
2022/04/08 01:17:30;;;;;;;6.43;2.50;;;10.50;99.90;;;;;;1038629;28;20507;-62
2022/04/08 01:18:01;;;;;;;4.93;1.93;;;10.50;99.90;;;;;;1039120;28;20057;-61
2022/04/08 01:18:31;;;;;;;4.80;1.30;;;10.50;99.90;;;;;;1038903;28;20014;-62
2022/04/08 01:19:03;;;;;;;6.13;1.97;;;10.60;99.90;;;;;;1039248;28;20500;-61
2022/04/08 01:19:33;;;;;;;3.22;1.58;;;10.50;99.90;;;;;;1038746;28;20671;-61
2022/04/08 01:20:04;;;;;;;3.53;1.70;;;10.50;99.90;;;;;;1039422;28;20376;-61
2022/04/08 01:20:35;;;;;;;4.85;1.77;;;10.50;99.90;;;;;;1038558;28;20464;-61
2022/04/08 01:21:07;;;;;;;6.00;1.80;;;10.50;99.90;;;;;;1039237;28;20510;-62
2022/04/08 01:21:37;;;;;;;3.42;1.30;;;10.50;99.90;;;;;;1038996;28;20021;-62
2022/04/08 01:22:08;;;;;;;4.77;1.50;;;10.50;99.90;;;;;;1039247;28;20100;-61
2022/04/08 01:22:39;;;;;;;4.00;1.27;;;10.50;99.90;;;;;;1039314;28;20096;-62
2022/04/08 01:23:09;;;;;;;3.73;1.33;;;10.50;99.90;;;;;;1040386;28;20018;-61
2022/04/08 01:23:47;;;;;;;4.03;1.40;;;10.50;99.90;;;;;;1039778;28;20017;-64
2022/04/08 01:24:21;;;;;;;2.17;1.00;;;10.50;99.90;;;;;;1040334;28;20100;-61
2022/04/08 01:25:11;;;;;;;4.18;1.83;;;10.50;99.90;;;;;;1040001;28;20665;-61
2022/04/08 01:25:41;;;;;;;3.45;1.25;;;10.50;99.90;;;;;;1039964;28;20013;-61
2022/04/08 01:26:12;;;;;;;2.17;1.07;;;10.50;99.90;;;;;;1040383;28;20018;-61
2022/04/08 01:26:42;;;;;;;5.17;1.70;;;10.50;99.90;;;;;;1039549;28;20088;-61
2022/04/08 01:27:16;;;;;;;4.47;1.53;;;10.50;99.90;;;;;;1040062;28;20039;-62
2022/04/08 01:27:47;;;;;;;5.28;1.77;;;10.50;99.90;;;;;;1035404;28;20014;-61
2022/04/08 01:28:17;;;;;;;6.47;1.70;;;10.50;99.90;;;;;;1036509;28;20093;-61
2022/04/08 01:28:48;;;;;;;3.13;1.23;;;10.50;99.90;;;;;;1039587;28;20101;-62
2022/04/08 01:29:19;;;;;;;3.20;1.30;;;10.50;99.90;;;;;;1035962;28;20022;-61
2022/04/08 01:29:49;;;;;;;8.37;1.93;;;10.50;99.90;;;;;;1039492;28;20096;-62
2022/04/08 01:30:20;;;;;;;5.70;1.73;;;10.50;99.90;;;;;;1040066;28;20020;-62
2022/04/08 01:30:51;;;;;;;4.13;1.53;;;10.50;99.90;;;;;;1039611;28;20014;-60
2022/04/08 01:31:25;;;;;;;3.50;1.50;;;10.50;99.90;;;;;;1040189;28;20071;-60
2022/04/08 01:31:55;;;;;;;3.80;1.70;;;10.50;99.90;;;;;;1040012;28;20014;-62
2022/04/08 01:32:26;;;;;;;4.80;1.77;;;10.50;99.90;;;;;;1040251;28;20357;-63
2022/04/08 01:32:57;;;;;;;4.47;1.20;;;10.50;99.90;;;;;;1039577;28;20028;-63
2022/04/08 01:33:27;;;;;;;5.10;1.30;;;10.50;99.90;;;;;;1039805;28;20028;-62
2022/04/08 01:33:58;;;;;;;4.90;1.83;;;10.50;99.90;;;;;;1039969;28;20544;-60
2022/04/08 01:34:29;;;;;;;3.30;1.30;;;10.40;99.90;;;;;;1039661;28;20024;-62
2022/04/08 01:34:59;;;;;;;3.97;1.53;;;10.50;99.90;;;;;;1039733;28;20037;-62
2022/04/08 01:35:30;;;;;;;2.97;1.55;;;10.50;99.90;;;;;;1039710;28;20022;-64
2022/04/08 01:36:01;;;;;;;6.30;1.40;;;10.50;99.90;;;;;;1039848;28;20403;-62
2022/04/08 01:36:31;;;;;;;6.03;1.30;;;10.50;99.90;;;;;;1040059;28;20112;-60
2022/04/08 01:37:02;;;;;;;5.17;1.50;;;10.50;99.90;;;;;;1040156;28;20025;-60
2022/04/08 01:37:32;;;;;;;3.47;1.20;;;10.50;99.90;;;;;;1040030;28;20083;-60
2022/04/08 01:38:03;;;;;;;4.00;1.30;;;10.50;99.90;;;;;;1040279;28;20108;-61
2022/04/08 01:38:34;;;;;;;7.17;1.70;;;10.50;99.90;;;;;;1039841;28;20029;-60
2022/04/08 01:39:05;;;;;;;6.57;1.97;;;10.40;99.90;;;;;;1038601;28;20096;-60
2022/04/08 01:39:36;;;;;;;4.13;1.33;;;10.40;99.90;;;;;;1035245;28;20030;-61
2022/04/08 01:40:08;;;;;;;5.45;1.63;;;10.50;99.90;;;;;;1039033;28;20022;-62
2022/04/08 01:40:38;;;;;;;4.18;1.25;;;10.50;99.90;;;;;;1039528;28;20029;-62
2022/04/08 01:41:09;;;;;;;3.00;1.50;;;10.50;99.90;;;;;;1039941;28;20390;-61
2022/04/08 01:41:39;;;;;;;3.23;1.37;;;10.40;99.90;;;;;;1039332;28;20018;-61
2022/04/08 01:42:10;;;;;;;5.20;1.30;;;10.40;99.90;;;;;;1035929;28;20738;-59
2022/04/08 01:42:41;;;;;;;6.60;2.00;;;10.40;99.90;;;;;;1037555;28;20053;-61
2022/04/08 01:43:12;;;;;;;5.03;1.47;;;10.40;99.90;;;;;;1039918;28;20018;-67
2022/04/08 01:43:45;;;;;;;4.33;2.00;;;10.50;99.90;;;;;;1035289;28;20025;-61
2022/04/08 01:44:15;;;;;;;3.53;1.40;;;10.40;99.90;;;;;;1039927;28;20095;-60
2022/04/08 01:44:47;;;;;;;4.17;1.63;;;10.40;99.90;;;;;;1039530;28;20079;-61
2022/04/08 01:45:17;;;;;;;2.95;0.98;;;10.40;99.90;;;;;;1040050;28;20055;-60
2022/04/08 01:45:48;;;;;;;5.07;1.40;;;10.40;99.90;;;;;;1039480;28;20083;-62
2022/04/08 01:46:19;;;;;;;3.03;1.30;;;10.40;99.90;;;;;;1040035;28;20022;-60
2022/04/08 01:46:49;;;;;;;5.47;1.40;;;10.40;99.90;;;;;;1039513;28;20079;-60
2022/04/08 01:47:21;;;;;;;2.83;1.40;;;10.40;99.90;;;;;;1039894;28;20116;-62
2022/04/08 01:47:52;;;;;;;5.35;2.20;;;10.40;99.90;;;;;;1035200;28;20778;-62
2022/04/08 01:48:22;;;;;;;2.77;1.40;;;10.40;99.90;;;;;;1036001;28;20020;-62
2022/04/08 01:48:54;;;;;;;4.47;2.03;;;10.40;99.90;;;;;;1035266;28;20049;-62
2022/04/08 01:49:25;;;;;;;4.03;1.40;;;10.40;99.90;;;;;;1036064;28;20022;-61
2022/04/08 01:49:55;;;;;;;4.50;1.47;;;10.40;99.90;;;;;;1039881;28;20026;-61
2022/04/08 01:50:26;;;;;;;2.60;1.30;;;10.40;99.90;;;;;;1040161;28;20017;-61
2022/04/08 01:50:57;;;;;;;8.43;1.97;;;10.40;99.90;;;;;;1041295;28;20052;-62
2022/04/08 01:51:27;;;;;;;5.03;1.63;;;10.40;99.90;;;;;;1044264;28;20036;-61
2022/04/08 01:51:58;;;;;;;5.00;1.63;;;10.40;99.90;;;;;;1044037;28;20025;-61
2022/04/08 01:52:29;;;;;;;4.70;1.43;;;10.40;99.90;;;;;;1044199;28;20418;-61
2022/04/08 01:53:00;;;;;;;4.72;1.10;;;10.30;99.90;;;;;;1043476;28;20425;-62
2022/04/08 01:53:30;;;;;;;4.73;1.30;;;10.30;99.90;;;;;;1039693;28;20067;-62
2022/04/08 01:54:01;;;;;;;3.73;1.83;;;10.40;99.90;;;;;;1039624;28;20760;-62
2022/04/08 01:54:31;;;;;;;2.97;1.37;;;10.40;99.90;;;;;;1039600;28;20025;-61
2022/04/08 01:55:05;;;;;;;3.97;1.67;;;10.40;99.90;;;;;;1039400;28;20120;-62
2022/04/08 01:55:35;;;;;;;3.83;1.40;;;10.40;99.90;;;;;;1039868;28;20412;-62
2022/04/08 01:56:06;;;;;;;3.43;1.17;;;10.40;99.90;;;;;;1039645;28;20349;-63
2022/04/08 01:56:36;;;;;;;4.33;1.27;;;10.40;99.90;;;;;;1039527;28;20051;-62
2022/04/08 01:57:07;;;;;;;4.43;2.00;;;10.30;99.90;;;;;;1039652;28;20083;-62
2022/04/08 01:57:38;;;;;;;3.90;1.60;;;10.40;99.90;;;;;;1039814;28;20101;-62
2022/04/08 01:58:08;;;;;;;3.10;1.53;;;10.30;99.90;;;;;;1039688;28;20025;-62
2022/04/08 01:58:39;;;;;;;5.47;1.57;;;10.30;99.90;;;;;;1039831;28;20041;-62
2022/04/08 01:59:10;;;;;;;4.80;1.50;;;10.30;99.90;;;;;;1040152;28;20026;-62
2022/04/08 01:59:41;;;;;;;4.47;1.73;;;10.30;99.90;;;;;;1040040;28;20021;-62
2022/04/08 02:00:13;;;;;;;4.47;2.07;;;10.30;99.90;;;;;;1040108;28;20376;-61
2022/04/08 02:00:43;;;;;;;5.13;1.85;;;10.30;99.90;;;;;;1039880;28;20022;-60
2022/04/08 02:01:14;;;;;;;5.43;1.90;;;10.30;99.90;;;;;;1040037;28;20052;-60
2022/04/08 02:01:44;;;;;;;2.53;1.10;;;10.30;99.90;;;;;;1039594;28;20524;-60
2022/04/08 02:02:17;;;;;;;3.00;1.23;;;10.30;99.90;;;;;;1040036;28;20018;-60
2022/04/08 02:02:47;;;;;;;3.33;1.52;;;10.30;99.90;;;;;;1039658;28;20025;-61
2022/04/08 02:03:20;;;;;;;5.10;1.30;;;10.30;99.90;;;;;;1040263;28;20014;-61
2022/04/08 02:03:50;;;;;;;3.33;1.23;;;10.30;99.90;;;;;;1039503;28;20009;-60
2022/04/08 02:04:21;;;;;;;3.47;1.60;;;10.30;99.90;;;;;;1039768;28;20001;-63
2022/04/08 02:04:52;;;;;;;3.80;1.30;;;10.30;99.90;;;;;;1039431;28;20089;-62
2022/04/08 02:05:23;;;;;;;4.77;1.57;;;10.30;99.90;;;;;;1039833;28;20074;-60
2022/04/08 02:05:53;;;;;;;3.22;1.48;;;10.20;99.90;;;;;;1040034;28;20447;-60
2022/04/08 02:06:24;;;;;;;2.73;1.10;;;10.20;99.90;;;;;;1039805;28;20018;-61
2022/04/08 02:06:55;;;;;;;6.53;2.00;;;10.20;99.90;;;;;;1039483;28;20021;-60
2022/04/08 02:07:26;;;;;;;4.23;1.47;;;10.20;99.90;;;;;;1036732;28;20105;-61
2022/04/08 02:07:56;;;;;;;2.85;1.30;;;10.20;99.90;;;;;;1039557;28;20460;-61
2022/04/08 02:08:27;;;;;;;4.17;1.80;;;10.20;99.90;;;;;;1039913;28;20029;-60
2022/04/08 02:08:58;;;;;;;3.87;1.20;;;10.20;99.90;;;;;;1039755;28;20014;-60
2022/04/08 02:09:28;;;;;;;4.10;1.25;;;10.20;99.90;;;;;;1039665;28;20491;-62
2022/04/08 02:09:59;;;;;;;3.27;1.40;;;10.20;99.90;;;;;;1039604;28;20040;-60
2022/04/08 02:10:30;;;;;;;5.00;1.67;;;10.20;99.90;;;;;;1039435;28;20017;-61
2022/04/08 02:11:00;;;;;;;4.10;1.70;;;10.20;99.90;;;;;;1039258;28;20013;-60
2022/04/08 02:11:31;;;;;;;5.23;1.87;;;10.20;99.90;;;;;;1039572;28;20037;-60
2022/04/08 02:12:01;;;;;;;5.73;1.27;;;10.20;99.90;;;;;;1039561;28;20028;-60
2022/04/08 02:12:32;;;;;;;4.33;1.63;;;10.20;99.90;;;;;;1040018;28;20014;-61
2022/04/08 02:13:03;;;;;;;5.73;2.37;;;10.20;99.90;;;;;;1039769;28;20036;-59
2022/04/08 02:13:33;;;;;;;2.87;1.67;;;10.20;99.90;;;;;;1039387;28;20014;-60
2022/04/08 02:14:04;;;;;;;3.87;1.43;;;10.20;99.90;;;;;;1039594;28;20017;-61
2022/04/08 02:14:35;;;;;;;2.22;1.30;;;10.20;99.90;;;;;;1039666;28;20071;-60
2022/04/08 02:15:07;;;;;;;5.13;1.80;;;10.20;99.90;;;;;;1039398;28;20460;-61
2022/04/08 02:15:38;;;;;;;2.78;1.23;;;10.20;99.90;;;;;;1040085;28;20016;-60
2022/04/08 02:16:08;;;;;;;3.80;1.50;;;10.20;99.90;;;;;;1039692;28;20020;-60
2022/04/08 02:16:39;;;;;;;4.77;1.97;;;10.20;99.90;;;;;;1040056;28;20025;-61
2022/04/08 02:17:09;;;;;;;5.57;1.97;;;10.20;99.90;;;;;;1038128;28;20018;-61
2022/04/08 02:17:40;;;;;;;4.00;1.43;;;10.20;99.90;;;;;;1035951;28;20018;-63
2022/04/08 02:18:10;;;;;;;5.23;1.33;;;10.20;99.90;;;;;;1035698;28;20067;-60
2022/04/08 02:18:42;;;;;;;4.53;1.40;;;10.20;99.90;;;;;;1035970;28;20049;-60
2022/04/08 02:19:12;;;;;;;2.85;1.25;;;10.20;99.90;;;;;;1035619;28;20144;-60
2022/04/08 02:19:43;;;;;;;2.63;1.03;;;10.10;99.90;;;;;;1036049;28;20071;-60
2022/04/08 02:20:13;;;;;;;4.10;1.47;;;10.20;99.90;;;;;;1035724;28;20029;-62
2022/04/08 02:20:44;;;;;;;5.83;1.73;;;10.20;99.90;;;;;;1035837;28;20018;-60
2022/04/08 02:21:19;;;;;;;4.03;1.50;;;10.10;99.90;;;;;;1036619;28;20024;-61
2022/04/08 02:21:50;;;;;;;6.80;1.30;;;10.10;99.90;;;;;;1039942;28;20270;-61
2022/04/08 02:22:21;;;;;;;4.40;1.70;;;10.10;99.90;;;;;;1040030;28;20013;-61
2022/04/08 02:22:52;;;;;;;3.58;1.42;;;10.10;99.90;;;;;;1039917;28;20059;-61
2022/04/08 02:23:22;;;;;;;4.17;1.50;;;10.10;99.90;;;;;;1039768;28;20035;-61
2022/04/08 02:23:54;;;;;;;2.47;1.30;;;10.10;99.90;;;;;;1039897;28;20025;-60
2022/04/08 02:24:25;;;;;;;3.50;1.23;;;10.10;99.90;;;;;;1039415;28;20041;-61
2022/04/08 02:24:57;;;;;;;3.47;1.27;;;10.10;99.90;;;;;;1039892;28;20543;-60
2022/04/08 02:25:27;;;;;;;3.38;1.10;;;10.10;99.90;;;;;;1039342;28;20425;-61
2022/04/08 02:25:58;;;;;;;3.83;1.67;;;10.10;99.90;;;;;;1039594;28;20492;-60
2022/04/08 02:26:29;;;;;;;7.17;1.60;;;10.10;99.90;;;;;;1039784;28;20010;-60
2022/04/08 02:26:59;;;;;;;3.80;1.47;;;10.10;99.90;;;;;;1040004;28;20014;-60
2022/04/08 02:27:30;;;;;;;3.53;1.43;;;10.10;99.90;;;;;;1039836;28;20527;-60
2022/04/08 02:28:02;;;;;;;6.87;2.30;;;10.10;99.90;;;;;;1039965;28;20584;-60
2022/04/08 02:28:33;;;;;;;6.13;1.52;;;10.10;99.90;;;;;;1039418;28;20016;-60
2022/04/08 02:29:04;;;;;;;7.90;1.57;;;10.10;99.90;;;;;;1039634;28;20025;-61
2022/04/08 02:29:35;;;;;;;4.60;1.50;;;10.10;99.90;;;;;;1039302;28;20647;-61
2022/04/08 02:30:06;;;;;;;4.83;1.43;;;10.10;99.90;;;;;;1039809;28;20048;-61
2022/04/08 02:30:37;;;;;;;5.72;1.83;;;10.10;99.90;;;;;;1040041;28;20045;-61
2022/04/08 02:31:07;;;;;;;3.53;1.70;;;10.10;99.90;;;;;;1039771;28;20067;-61
2022/04/08 02:31:38;;;;;;;3.80;1.17;;;10.10;99.90;;;;;;1040051;28;20392;-61
2022/04/08 02:32:12;;;;;;;2.90;1.30;;;10.10;99.90;;;;;;1039714;28;20367;-61
2022/04/08 02:32:42;;;;;;;4.97;2.00;;;10.10;99.90;;;;;;1040103;28;20010;-60
2022/04/08 02:33:13;;;;;;;4.53;1.57;;;10.10;99.90;;;;;;1039731;28;20028;-61
2022/04/08 02:33:43;;;;;;;6.27;1.97;;;10.10;99.90;;;;;;1039190;28;20026;-61
2022/04/08 02:34:14;;;;;;;2.17;1.20;;;10.10;99.90;;;;;;1039278;28;20563;-61
2022/04/08 02:34:44;;;;;;;4.50;1.60;;;10.00;99.90;;;;;;1039662;28;20017;-60
2022/04/08 02:35:15;;;;;;;3.70;1.40;;;10.10;99.90;;;;;;1039425;28;20052;-61
2022/04/08 02:35:46;;;;;;;3.30;1.20;;;10.10;99.90;;;;;;1039931;28;20045;-61
2022/04/08 02:36:17;;;;;;;3.00;1.37;;;10.10;99.90;;;;;;1039370;28;20014;-60
2022/04/08 02:36:47;;;;;;;4.77;1.77;;;10.10;99.90;;;;;;1035466;28;20101;-60
2022/04/08 02:37:18;;;;;;;4.13;1.60;;;10.10;99.90;;;;;;1035247;28;20041;-60
2022/04/08 02:37:49;;;;;;;3.72;1.25;;;10.10;99.90;;;;;;1035802;28;20014;-60
2022/04/08 02:38:19;;;;;;;3.73;1.23;;;10.00;99.90;;;;;;1039499;28;20049;-60
2022/04/08 02:38:50;;;;;;;2.87;1.03;;;10.00;99.90;;;;;;1039609;28;20100;-60
2022/04/08 02:39:20;;;;;;;2.97;1.43;;;10.10;99.90;;;;;;1039760;28;20024;-60
2022/04/08 02:39:52;;;;;;;5.80;1.80;;;10.10;99.90;;;;;;1039967;28;20038;-60
2022/04/08 02:40:23;;;;;;;2.20;1.10;;;10.00;99.90;;;;;;1039740;28;20052;-61
2022/04/08 02:40:53;;;;;;;3.30;1.53;;;10.00;99.90;;;;;;1039905;28;20012;-61
2022/04/08 02:41:24;;;;;;;4.10;1.30;;;10.00;99.90;;;;;;1039294;28;20017;-62
2022/04/08 02:41:54;;;;;;;4.77;1.43;;;10.10;99.90;;;;;;1039465;28;20080;-60